sensor_id;sensor_type;location;lat;lon;timestamp;P1;durP1;ratioP1;P2;durP2;ratioP2
33491;SDS011;20010;51.488;7.232;2023-08-06T00:00:52;5.90;;;5.50;;
33491;SDS011;20010;51.488;7.232;2023-08-06T00:03:19;5.45;;;4.95;;
33491;SDS011;20010;51.488;7.232;2023-08-06T00:05:46;5.55;;;5.15;;
33491;SDS011;20010;51.488;7.232;2023-08-06T00:08:13;6.43;;;5.93;;
33491;SDS011;20010;51.488;7.232;2023-08-06T00:10:40;6.10;;;5.70;;
33491;SDS011;20010;51.488;7.232;2023-08-06T00:13:07;7.97;;;5.30;;
33491;SDS011;20010;51.488;7.232;2023-08-06T00:15:34;5.65;;;5.25;;
33491;SDS011;20010;51.488;7.232;2023-08-06T00:18:01;5.80;;;5.25;;
33491;SDS011;20010;51.488;7.232;2023-08-06T00:20:28;6.07;;;5.57;;
33491;SDS011;20010;51.488;7.232;2023-08-06T00:22:54;6.22;;;5.63;;
33491;SDS011;20010;51.488;7.232;2023-08-06T00:25:21;8.95;;;5.63;;
33491;SDS011;20010;51.488;7.232;2023-08-06T00:27:47;5.78;;;5.38;;
33491;SDS011;20010;51.488;7.232;2023-08-06T00:30:14;7.35;;;5.90;;
33491;SDS011;20010;51.488;7.232;2023-08-06T00:32:40;5.88;;;5.38;;
33491;SDS011;20010;51.488;7.232;2023-08-06T00:35:07;7.60;;;6.40;;
33491;SDS011;20010;51.488;7.232;2023-08-06T00:37:34;6.35;;;5.57;;
33491;SDS011;20010;51.488;7.232;2023-08-06T00:40:00;6.35;;;5.78;;
33491;SDS011;20010;51.488;7.232;2023-08-06T00:42:27;6.40;;;5.90;;
33491;SDS011;20010;51.488;7.232;2023-08-06T00:44:53;5.95;;;5.50;;
33491;SDS011;20010;51.488;7.232;2023-08-06T00:47:20;5.97;;;5.55;;
33491;SDS011;20010;51.488;7.232;2023-08-06T00:49:46;5.88;;;5.10;;
33491;SDS011;20010;51.488;7.232;2023-08-06T00:52:13;5.97;;;5.45;;
33491;SDS011;20010;51.488;7.232;2023-08-06T00:54:40;5.97;;;5.57;;
33491;SDS011;20010;51.488;7.232;2023-08-06T00:57:07;6.10;;;5.60;;
33491;SDS011;20010;51.488;7.232;2023-08-06T00:59:35;5.95;;;5.45;;
33491;SDS011;20010;51.488;7.232;2023-08-06T01:02:02;7.32;;;5.05;;
33491;SDS011;20010;51.488;7.232;2023-08-06T01:04:29;5.70;;;5.25;;
33491;SDS011;20010;51.488;7.232;2023-08-06T01:07:04;6.43;;;5.72;;
33491;SDS011;20010;51.488;7.232;2023-08-06T01:12:25;5.88;;;5.47;;
33491;SDS011;20010;51.488;7.232;2023-08-06T01:15:15;6.00;;;5.60;;
33491;SDS011;20010;51.488;7.232;2023-08-06T01:17:45;5.70;;;5.30;;
33491;SDS011;20010;51.488;7.232;2023-08-06T01:20:12;5.50;;;4.97;;
33491;SDS011;20010;51.488;7.232;2023-08-06T01:22:39;6.18;;;5.63;;
33491;SDS011;20010;51.488;7.232;2023-08-06T01:25:06;6.05;;;5.50;;
33491;SDS011;20010;51.488;7.232;2023-08-06T01:27:35;8.05;;;5.85;;
33491;SDS011;20010;51.488;7.232;2023-08-06T01:30:12;6.30;;;5.70;;
33491;SDS011;20010;51.488;7.232;2023-08-06T01:32:42;6.15;;;5.55;;
33491;SDS011;20010;51.488;7.232;2023-08-06T01:35:11;8.55;;;6.10;;
33491;SDS011;20010;51.488;7.232;2023-08-06T01:37:41;6.20;;;5.80;;
33491;SDS011;20010;51.488;7.232;2023-08-06T01:40:16;5.68;;;5.10;;
33491;SDS011;20010;51.488;7.232;2023-08-06T01:42:42;6.18;;;5.68;;
33491;SDS011;20010;51.488;7.232;2023-08-06T01:45:09;7.38;;;6.70;;
33491;SDS011;20010;51.488;7.232;2023-08-06T01:47:36;5.70;;;5.20;;
33491;SDS011;20010;51.488;7.232;2023-08-06T01:50:03;5.60;;;5.10;;
33491;SDS011;20010;51.488;7.232;2023-08-06T01:52:29;6.72;;;6.00;;
33491;SDS011;20010;51.488;7.232;2023-08-06T01:54:56;7.32;;;5.80;;
33491;SDS011;20010;51.488;7.232;2023-08-06T01:57:23;6.63;;;6.03;;
33491;SDS011;20010;51.488;7.232;2023-08-06T01:59:49;5.68;;;5.28;;
33491;SDS011;20010;51.488;7.232;2023-08-06T02:02:16;6.45;;;5.60;;
33491;SDS011;20010;51.488;7.232;2023-08-06T02:04:42;7.20;;;5.80;;
33491;SDS011;20010;51.488;7.232;2023-08-06T02:07:09;5.72;;;5.28;;
33491;SDS011;20010;51.488;7.232;2023-08-06T02:09:35;5.30;;;4.80;;
33491;SDS011;20010;51.488;7.232;2023-08-06T02:12:02;6.03;;;5.53;;
33491;SDS011;20010;51.488;7.232;2023-08-06T02:14:29;6.10;;;5.60;;
33491;SDS011;20010;51.488;7.232;2023-08-06T02:16:56;6.03;;;5.30;;
33491;SDS011;20010;51.488;7.232;2023-08-06T02:19:22;5.80;;;5.30;;
33491;SDS011;20010;51.488;7.232;2023-08-06T02:21:49;5.85;;;5.30;;
33491;SDS011;20010;51.488;7.232;2023-08-06T02:24:16;7.55;;;5.22;;
33491;SDS011;20010;51.488;7.232;2023-08-06T02:26:43;5.80;;;5.38;;
33491;SDS011;20010;51.488;7.232;2023-08-06T02:29:09;5.97;;;5.57;;
33491;SDS011;20010;51.488;7.232;2023-08-06T02:31:36;6.15;;;5.55;;
33491;SDS011;20010;51.488;7.232;2023-08-06T02:34:03;5.97;;;5.50;;
33491;SDS011;20010;51.488;7.232;2023-08-06T02:36:29;6.18;;;5.68;;
33491;SDS011;20010;51.488;7.232;2023-08-06T02:38:56;5.68;;;5.18;;
33491;SDS011;20010;51.488;7.232;2023-08-06T02:41:22;5.55;;;5.15;;
33491;SDS011;20010;51.488;7.232;2023-08-06T02:43:49;6.15;;;5.75;;
33491;SDS011;20010;51.488;7.232;2023-08-06T02:46:15;5.88;;;5.38;;
33491;SDS011;20010;51.488;7.232;2023-08-06T02:48:42;9.50;;;6.00;;
33491;SDS011;20010;51.488;7.232;2023-08-06T02:51:08;6.05;;;5.15;;
33491;SDS011;20010;51.488;7.232;2023-08-06T02:53:35;5.65;;;5.22;;
33491;SDS011;20010;51.488;7.232;2023-08-06T02:56:01;5.70;;;5.18;;
33491;SDS011;20010;51.488;7.232;2023-08-06T02:58:29;7.97;;;5.45;;
33491;SDS011;20010;51.488;7.232;2023-08-06T03:00:59;5.28;;;4.88;;
33491;SDS011;20010;51.488;7.232;2023-08-06T03:03:30;8.80;;;5.72;;
33491;SDS011;20010;51.488;7.232;2023-08-06T03:05:57;5.97;;;5.35;;
33491;SDS011;20010;51.488;7.232;2023-08-06T03:08:24;5.38;;;4.97;;
33491;SDS011;20010;51.488;7.232;2023-08-06T03:10:50;5.30;;;4.97;;
33491;SDS011;20010;51.488;7.232;2023-08-06T03:13:17;6.70;;;5.20;;
33491;SDS011;20010;51.488;7.232;2023-08-06T03:15:54;5.47;;;5.03;;
33491;SDS011;20010;51.488;7.232;2023-08-06T03:18:21;8.27;;;5.95;;
33491;SDS011;20010;51.488;7.232;2023-08-06T03:20:48;6.22;;;5.00;;
33491;SDS011;20010;51.488;7.232;2023-08-06T03:23:15;6.13;;;5.55;;
33491;SDS011;20010;51.488;7.232;2023-08-06T03:25:42;6.05;;;5.45;;
33491;SDS011;20010;51.488;7.232;2023-08-06T03:28:08;5.82;;;5.38;;
33491;SDS011;20010;51.488;7.232;2023-08-06T03:30:35;5.65;;;5.25;;
33491;SDS011;20010;51.488;7.232;2023-08-06T03:33:02;5.85;;;5.28;;
33491;SDS011;20010;51.488;7.232;2023-08-06T03:35:28;6.10;;;5.70;;
33491;SDS011;20010;51.488;7.232;2023-08-06T03:37:55;5.38;;;4.97;;
33491;SDS011;20010;51.488;7.232;2023-08-06T03:40:22;6.13;;;5.68;;
33491;SDS011;20010;51.488;7.232;2023-08-06T03:42:48;5.28;;;4.78;;
33491;SDS011;20010;51.488;7.232;2023-08-06T03:45:15;5.95;;;5.38;;
33491;SDS011;20010;51.488;7.232;2023-08-06T03:47:42;5.53;;;5.13;;
33491;SDS011;20010;51.488;7.232;2023-08-06T03:50:08;6.07;;;5.63;;
33491;SDS011;20010;51.488;7.232;2023-08-06T03:52:35;5.60;;;5.20;;
33491;SDS011;20010;51.488;7.232;2023-08-06T03:55:02;5.32;;;4.95;;
33491;SDS011;20010;51.488;7.232;2023-08-06T03:57:28;7.13;;;6.53;;
33491;SDS011;20010;51.488;7.232;2023-08-06T03:59:55;6.95;;;4.47;;
33491;SDS011;20010;51.488;7.232;2023-08-06T04:02:21;5.47;;;4.88;;
33491;SDS011;20010;51.488;7.232;2023-08-06T04:04:48;5.72;;;5.25;;
33491;SDS011;20010;51.488;7.232;2023-08-06T04:07:15;5.22;;;4.82;;
33491;SDS011;20010;51.488;7.232;2023-08-06T04:12:37;5.22;;;4.80;;
33491;SDS011;20010;51.488;7.232;2023-08-06T04:15:05;5.72;;;5.15;;
33491;SDS011;20010;51.488;7.232;2023-08-06T04:17:32;5.68;;;5.28;;
33491;SDS011;20010;51.488;7.232;2023-08-06T04:19:59;5.82;;;5.25;;
33491;SDS011;20010;51.488;7.232;2023-08-06T04:22:26;4.88;;;4.57;;
33491;SDS011;20010;51.488;7.232;2023-08-06T04:24:53;5.15;;;4.70;;
33491;SDS011;20010;51.488;7.232;2023-08-06T04:27:19;5.60;;;5.05;;
33491;SDS011;20010;51.488;7.232;2023-08-06T04:29:46;6.50;;;5.47;;
33491;SDS011;20010;51.488;7.232;2023-08-06T04:32:13;4.97;;;4.55;;
33491;SDS011;20010;51.488;7.232;2023-08-06T04:34:39;4.75;;;4.45;;
33491;SDS011;20010;51.488;7.232;2023-08-06T04:37:07;5.65;;;4.90;;
33491;SDS011;20010;51.488;7.232;2023-08-06T04:39:33;5.18;;;4.75;;
33491;SDS011;20010;51.488;7.232;2023-08-06T04:42:00;4.90;;;4.50;;
33491;SDS011;20010;51.488;7.232;2023-08-06T04:44:26;5.28;;;4.80;;
33491;SDS011;20010;51.488;7.232;2023-08-06T04:46:53;4.93;;;4.53;;
33491;SDS011;20010;51.488;7.232;2023-08-06T04:49:20;6.57;;;4.72;;
33491;SDS011;20010;51.488;7.232;2023-08-06T04:51:47;5.22;;;4.72;;
33491;SDS011;20010;51.488;7.232;2023-08-06T04:54:13;4.97;;;4.68;;
33491;SDS011;20010;51.488;7.232;2023-08-06T04:56:40;6.00;;;4.20;;
33491;SDS011;20010;51.488;7.232;2023-08-06T04:59:06;4.80;;;4.40;;
33491;SDS011;20010;51.488;7.232;2023-08-06T05:01:33;5.43;;;4.47;;
33491;SDS011;20010;51.488;7.232;2023-08-06T05:04:00;4.72;;;4.25;;
33491;SDS011;20010;51.488;7.232;2023-08-06T05:06:26;5.10;;;4.60;;
33491;SDS011;20010;51.488;7.232;2023-08-06T05:08:53;5.57;;;5.10;;
33491;SDS011;20010;51.488;7.232;2023-08-06T05:11:19;5.40;;;4.90;;
33491;SDS011;20010;51.488;7.232;2023-08-06T05:13:46;7.20;;;4.95;;
33491;SDS011;20010;51.488;7.232;2023-08-06T05:16:13;5.93;;;4.90;;
33491;SDS011;20010;51.488;7.232;2023-08-06T05:18:39;4.35;;;4.05;;
33491;SDS011;20010;51.488;7.232;2023-08-06T05:21:07;5.38;;;4.88;;
33491;SDS011;20010;51.488;7.232;2023-08-06T05:23:33;6.28;;;4.75;;
33491;SDS011;20010;51.488;7.232;2023-08-06T05:26:00;5.68;;;4.50;;
33491;SDS011;20010;51.488;7.232;2023-08-06T05:28:27;4.70;;;4.40;;
33491;SDS011;20010;51.488;7.232;2023-08-06T05:30:53;4.70;;;4.30;;
33491;SDS011;20010;51.488;7.232;2023-08-06T05:33:20;4.88;;;4.45;;
33491;SDS011;20010;51.488;7.232;2023-08-06T05:35:46;4.80;;;4.40;;
33491;SDS011;20010;51.488;7.232;2023-08-06T05:38:13;5.53;;;5.13;;
33491;SDS011;20010;51.488;7.232;2023-08-06T05:40:39;5.65;;;4.60;;
33491;SDS011;20010;51.488;7.232;2023-08-06T05:43:06;6.32;;;5.63;;
33491;SDS011;20010;51.488;7.232;2023-08-06T05:45:32;5.50;;;5.10;;
33491;SDS011;20010;51.488;7.232;2023-08-06T05:47:59;5.38;;;4.88;;
33491;SDS011;20010;51.488;7.232;2023-08-06T05:50:26;9.13;;;8.27;;
33491;SDS011;20010;51.488;7.232;2023-08-06T05:52:52;5.32;;;4.93;;
33491;SDS011;20010;51.488;7.232;2023-08-06T05:55:19;5.00;;;4.60;;
33491;SDS011;20010;51.488;7.232;2023-08-06T05:57:46;4.82;;;4.43;;
33491;SDS011;20010;51.488;7.232;2023-08-06T06:00:13;6.60;;;5.95;;
33491;SDS011;20010;51.488;7.232;2023-08-06T06:02:40;4.85;;;4.53;;
33491;SDS011;20010;51.488;7.232;2023-08-06T06:05:06;4.50;;;4.10;;
33491;SDS011;20010;51.488;7.232;2023-08-06T06:07:33;5.03;;;4.65;;
33491;SDS011;20010;51.488;7.232;2023-08-06T06:10:00;5.38;;;4.88;;
33491;SDS011;20010;51.488;7.232;2023-08-06T06:12:27;5.05;;;4.55;;
33491;SDS011;20010;51.488;7.232;2023-08-06T06:14:53;4.80;;;4.45;;
33491;SDS011;20010;51.488;7.232;2023-08-06T06:17:20;5.40;;;4.90;;
33491;SDS011;20010;51.488;7.232;2023-08-06T06:19:46;6.72;;;6.22;;
33491;SDS011;20010;51.488;7.232;2023-08-06T06:22:13;6.70;;;6.10;;
33491;SDS011;20010;51.488;7.232;2023-08-06T06:24:40;6.07;;;5.45;;
33491;SDS011;20010;51.488;7.232;2023-08-06T06:27:07;5.88;;;5.03;;
33491;SDS011;20010;51.488;7.232;2023-08-06T06:29:33;5.70;;;5.18;;
33491;SDS011;20010;51.488;7.232;2023-08-06T06:32:00;5.93;;;4.93;;
33491;SDS011;20010;51.488;7.232;2023-08-06T06:34:26;5.10;;;4.70;;
33491;SDS011;20010;51.488;7.232;2023-08-06T06:36:53;5.80;;;4.63;;
33491;SDS011;20010;51.488;7.232;2023-08-06T06:39:20;4.38;;;3.97;;
33491;SDS011;20010;51.488;7.232;2023-08-06T06:41:47;4.50;;;4.10;;
33491;SDS011;20010;51.488;7.232;2023-08-06T06:44:14;4.38;;;4.07;;
33491;SDS011;20010;51.488;7.232;2023-08-06T06:46:41;4.57;;;4.22;;
33491;SDS011;20010;51.488;7.232;2023-08-06T06:49:08;4.53;;;4.28;;
33491;SDS011;20010;51.488;7.232;2023-08-06T06:51:34;4.88;;;4.25;;
33491;SDS011;20010;51.488;7.232;2023-08-06T06:54:02;4.95;;;4.50;;
33491;SDS011;20010;51.488;7.232;2023-08-06T06:56:29;7.28;;;5.13;;
33491;SDS011;20010;51.488;7.232;2023-08-06T06:58:56;6.38;;;4.28;;
33491;SDS011;20010;51.488;7.232;2023-08-06T07:01:22;4.30;;;4.03;;
33491;SDS011;20010;51.488;7.232;2023-08-06T07:03:49;4.80;;;4.40;;
33491;SDS011;20010;51.488;7.232;2023-08-06T07:06:15;5.05;;;4.22;;
33491;SDS011;20010;51.488;7.232;2023-08-06T07:08:44;4.97;;;4.30;;
33491;SDS011;20010;51.488;7.232;2023-08-06T07:11:11;4.38;;;4.03;;
33491;SDS011;20010;51.488;7.232;2023-08-06T07:13:38;4.43;;;4.13;;
33491;SDS011;20010;51.488;7.232;2023-08-06T07:16:05;4.35;;;4.05;;
33491;SDS011;20010;51.488;7.232;2023-08-06T07:18:33;4.20;;;3.90;;
33491;SDS011;20010;51.488;7.232;2023-08-06T07:21:00;4.28;;;3.97;;
33491;SDS011;20010;51.488;7.232;2023-08-06T07:23:26;4.78;;;4.30;;
33491;SDS011;20010;51.488;7.232;2023-08-06T07:25:53;5.85;;;4.32;;
33491;SDS011;20010;51.488;7.232;2023-08-06T07:28:20;4.78;;;4.07;;
33491;SDS011;20010;51.488;7.232;2023-08-06T07:30:46;4.40;;;4.10;;
33491;SDS011;20010;51.488;7.232;2023-08-06T07:33:13;4.40;;;4.00;;
33491;SDS011;20010;51.488;7.232;2023-08-06T07:35:39;4.95;;;4.57;;
33491;SDS011;20010;51.488;7.232;2023-08-06T07:38:06;4.97;;;4.30;;
33491;SDS011;20010;51.488;7.232;2023-08-06T07:40:33;4.30;;;3.88;;
33491;SDS011;20010;51.488;7.232;2023-08-06T07:43:02;4.50;;;4.10;;
33491;SDS011;20010;51.488;7.232;2023-08-06T07:45:36;4.30;;;3.92;;
33491;SDS011;20010;51.488;7.232;2023-08-06T07:48:03;4.70;;;3.92;;
33491;SDS011;20010;51.488;7.232;2023-08-06T07:50:30;3.80;;;3.60;;
33491;SDS011;20010;51.488;7.232;2023-08-06T07:52:57;4.55;;;4.25;;
33491;SDS011;20010;51.488;7.232;2023-08-06T07:55:23;4.13;;;3.83;;
33491;SDS011;20010;51.488;7.232;2023-08-06T07:57:51;6.38;;;4.45;;
33491;SDS011;20010;51.488;7.232;2023-08-06T08:00:18;4.32;;;3.92;;
33491;SDS011;20010;51.488;7.232;2023-08-06T08:02:45;4.40;;;4.10;;
33491;SDS011;20010;51.488;7.232;2023-08-06T08:05:13;4.63;;;4.22;;
33491;SDS011;20010;51.488;7.232;2023-08-06T08:07:39;6.55;;;4.30;;
33491;SDS011;20010;51.488;7.232;2023-08-06T08:10:06;4.25;;;3.95;;
33491;SDS011;20010;51.488;7.232;2023-08-06T08:12:33;6.68;;;5.10;;
33491;SDS011;20010;51.488;7.232;2023-08-06T08:14:59;4.32;;;4.00;;
33491;SDS011;20010;51.488;7.232;2023-08-06T08:17:26;4.78;;;4.38;;
33491;SDS011;20010;51.488;7.232;2023-08-06T08:19:53;5.05;;;4.30;;
33491;SDS011;20010;51.488;7.232;2023-08-06T08:22:19;6.22;;;5.40;;
33491;SDS011;20010;51.488;7.232;2023-08-06T08:24:46;6.93;;;6.22;;
33491;SDS011;20010;51.488;7.232;2023-08-06T08:27:13;4.82;;;4.43;;
33491;SDS011;20010;51.488;7.232;2023-08-06T08:29:39;4.70;;;4.35;;
33491;SDS011;20010;51.488;7.232;2023-08-06T08:32:06;5.13;;;4.68;;
33491;SDS011;20010;51.488;7.232;2023-08-06T08:34:34;5.53;;;5.00;;
33491;SDS011;20010;51.488;7.232;2023-08-06T08:37:01;4.22;;;3.95;;
33491;SDS011;20010;51.488;7.232;2023-08-06T08:39:28;5.57;;;4.20;;
33491;SDS011;20010;51.488;7.232;2023-08-06T08:41:54;4.82;;;4.43;;
33491;SDS011;20010;51.488;7.232;2023-08-06T08:44:21;4.85;;;4.55;;
33491;SDS011;20010;51.488;7.232;2023-08-06T08:46:48;4.80;;;4.05;;
33491;SDS011;20010;51.488;7.232;2023-08-06T08:49:15;5.75;;;5.07;;
33491;SDS011;20010;51.488;7.232;2023-08-06T08:51:42;5.47;;;4.20;;
33491;SDS011;20010;51.488;7.232;2023-08-06T08:54:09;5.28;;;3.92;;
33491;SDS011;20010;51.488;7.232;2023-08-06T08:56:37;4.05;;;3.67;;
33491;SDS011;20010;51.488;7.232;2023-08-06T08:59:04;4.45;;;4.20;;
33491;SDS011;20010;51.488;7.232;2023-08-06T09:01:30;5.95;;;5.45;;
33491;SDS011;20010;51.488;7.232;2023-08-06T09:03:57;4.47;;;4.10;;
33491;SDS011;20010;51.488;7.232;2023-08-06T09:06:25;5.65;;;4.47;;
33491;SDS011;20010;51.488;7.232;2023-08-06T09:09:01;6.40;;;4.47;;
33491;SDS011;20010;51.488;7.232;2023-08-06T09:11:34;4.32;;;3.92;;
33491;SDS011;20010;51.488;7.232;2023-08-06T09:14:06;5.43;;;4.93;;
33491;SDS011;20010;51.488;7.232;2023-08-06T09:16:35;4.70;;;4.20;;
33491;SDS011;20010;51.488;7.232;2023-08-06T09:19:11;4.75;;;4.32;;
33491;SDS011;20010;51.488;7.232;2023-08-06T09:21:45;4.30;;;3.90;;
33491;SDS011;20010;51.488;7.232;2023-08-06T09:24:14;4.57;;;4.10;;
33491;SDS011;20010;51.488;7.232;2023-08-06T09:26:43;4.32;;;3.90;;
33491;SDS011;20010;51.488;7.232;2023-08-06T09:29:10;4.57;;;4.18;;
33491;SDS011;20010;51.488;7.232;2023-08-06T09:34:15;5.15;;;4.50;;
33491;SDS011;20010;51.488;7.232;2023-08-06T09:36:43;5.43;;;5.00;;
33491;SDS011;20010;51.488;7.232;2023-08-06T09:39:17;4.82;;;4.50;;
33491;SDS011;20010;51.488;7.232;2023-08-06T09:41:48;4.43;;;4.03;;
33491;SDS011;20010;51.488;7.232;2023-08-06T09:44:18;5.15;;;4.68;;
33491;SDS011;20010;51.488;7.232;2023-08-06T09:46:49;5.35;;;4.85;;
33491;SDS011;20010;51.488;7.232;2023-08-06T09:49:21;4.65;;;4.35;;
33491;SDS011;20010;51.488;7.232;2023-08-06T09:51:51;4.85;;;4.45;;
33491;SDS011;20010;51.488;7.232;2023-08-06T09:54:20;5.07;;;4.72;;
33491;SDS011;20010;51.488;7.232;2023-08-06T09:56:49;5.80;;;5.15;;
33491;SDS011;20010;51.488;7.232;2023-08-06T09:59:16;6.03;;;5.55;;
33491;SDS011;20010;51.488;7.232;2023-08-06T10:01:43;5.43;;;4.90;;
33491;SDS011;20010;51.488;7.232;2023-08-06T10:04:10;6.18;;;5.72;;
33491;SDS011;20010;51.488;7.232;2023-08-06T10:06:49;6.22;;;5.75;;
33491;SDS011;20010;51.488;7.232;2023-08-06T10:09:16;6.75;;;5.50;;
33491;SDS011;20010;51.488;7.232;2023-08-06T10:11:44;5.57;;;5.18;;
33491;SDS011;20010;51.488;7.232;2023-08-06T10:16:54;6.20;;;5.80;;
33491;SDS011;20010;51.488;7.232;2023-08-06T10:19:21;5.35;;;5.03;;
33491;SDS011;20010;51.488;7.232;2023-08-06T10:24:48;6.63;;;5.30;;
33491;SDS011;20010;51.488;7.232;2023-08-06T10:27:23;5.63;;;5.32;;
33491;SDS011;20010;51.488;7.232;2023-08-06T10:29:54;6.43;;;5.95;;
33491;SDS011;20010;51.488;7.232;2023-08-06T10:32:41;7.38;;;6.88;;
33491;SDS011;20010;51.488;7.232;2023-08-06T10:35:27;7.45;;;6.85;;
33491;SDS011;20010;51.488;7.232;2023-08-06T10:38:24;6.20;;;5.70;;
33491;SDS011;20010;51.488;7.232;2023-08-06T10:43:26;6.78;;;6.18;;
33491;SDS011;20010;51.488;7.232;2023-08-06T10:45:54;6.50;;;6.00;;
33491;SDS011;20010;51.488;7.232;2023-08-06T10:48:34;5.78;;;5.38;;
33491;SDS011;20010;51.488;7.232;2023-08-06T10:51:08;6.57;;;5.18;;
33491;SDS011;20010;51.488;7.232;2023-08-06T10:53:35;5.65;;;5.25;;
33491;SDS011;20010;51.488;7.232;2023-08-06T10:56:11;5.72;;;5.25;;
33491;SDS011;20010;51.488;7.232;2023-08-06T10:58:39;5.78;;;5.38;;
33491;SDS011;20010;51.488;7.232;2023-08-06T11:01:06;6.35;;;5.82;;
33491;SDS011;20010;51.488;7.232;2023-08-06T11:03:33;6.00;;;5.50;;
33491;SDS011;20010;51.488;7.232;2023-08-06T11:06:00;6.45;;;5.90;;
33491;SDS011;20010;51.488;7.232;2023-08-06T11:08:27;5.45;;;5.15;;
33491;SDS011;20010;51.488;7.232;2023-08-06T11:10:55;6.18;;;5.78;;
33491;SDS011;20010;51.488;7.232;2023-08-06T11:13:29;7.13;;;6.53;;
33491;SDS011;20010;51.488;7.232;2023-08-06T11:15:56;6.78;;;6.28;;
33491;SDS011;20010;51.488;7.232;2023-08-06T11:18:22;6.38;;;5.97;;
33491;SDS011;20010;51.488;7.232;2023-08-06T11:20:49;6.97;;;6.28;;
33491;SDS011;20010;51.488;7.232;2023-08-06T11:23:15;6.90;;;6.40;;
33491;SDS011;20010;51.488;7.232;2023-08-06T11:25:45;6.15;;;5.65;;
33491;SDS011;20010;51.488;7.232;2023-08-06T11:28:12;7.72;;;7.10;;
33491;SDS011;20010;51.488;7.232;2023-08-06T11:30:39;5.82;;;5.53;;
33491;SDS011;20010;51.488;7.232;2023-08-06T11:33:06;5.30;;;5.00;;
33491;SDS011;20010;51.488;7.232;2023-08-06T11:35:34;6.38;;;5.97;;
33491;SDS011;20010;51.488;7.232;2023-08-06T11:38:01;6.35;;;5.85;;
33491;SDS011;20010;51.488;7.232;2023-08-06T11:40:28;5.47;;;5.18;;
33491;SDS011;20010;51.488;7.232;2023-08-06T11:42:55;5.32;;;5.00;;
33491;SDS011;20010;51.488;7.232;2023-08-06T11:45:22;5.95;;;5.47;;
33491;SDS011;20010;51.488;7.232;2023-08-06T11:47:50;5.93;;;5.53;;
33491;SDS011;20010;51.488;7.232;2023-08-06T11:50:22;6.15;;;5.68;;
33491;SDS011;20010;51.488;7.232;2023-08-06T11:52:52;6.50;;;6.00;;
33491;SDS011;20010;51.488;7.232;2023-08-06T11:55:23;7.00;;;6.60;;
33491;SDS011;20010;51.488;7.232;2023-08-06T11:57:50;7.32;;;6.82;;
33491;SDS011;20010;51.488;7.232;2023-08-06T12:00:17;7.45;;;6.97;;
33491;SDS011;20010;51.488;7.232;2023-08-06T12:02:46;6.90;;;6.50;;
33491;SDS011;20010;51.488;7.232;2023-08-06T12:05:14;6.60;;;6.05;;
33491;SDS011;20010;51.488;7.232;2023-08-06T12:07:42;6.90;;;6.40;;
33491;SDS011;20010;51.488;7.232;2023-08-06T12:10:10;8.43;;;7.82;;
33491;SDS011;20010;51.488;7.232;2023-08-06T12:12:38;6.90;;;6.43;;
33491;SDS011;20010;51.488;7.232;2023-08-06T12:15:05;7.95;;;7.35;;
33491;SDS011;20010;51.488;7.232;2023-08-06T12:17:32;6.38;;;5.97;;
33491;SDS011;20010;51.488;7.232;2023-08-06T12:19:59;4.82;;;4.63;;
33491;SDS011;20010;51.488;7.232;2023-08-06T12:22:26;5.60;;;5.30;;
33491;SDS011;20010;51.488;7.232;2023-08-06T12:24:52;5.43;;;5.13;;
33491;SDS011;20010;51.488;7.232;2023-08-06T12:27:19;7.13;;;6.63;;
33491;SDS011;20010;51.488;7.232;2023-08-06T12:29:47;7.00;;;6.60;;
33491;SDS011;20010;51.488;7.232;2023-08-06T12:32:14;7.35;;;6.95;;
33491;SDS011;20010;51.488;7.232;2023-08-06T12:34:42;8.23;;;7.72;;
33491;SDS011;20010;51.488;7.232;2023-08-06T12:37:18;9.15;;;8.55;;
33491;SDS011;20010;51.488;7.232;2023-08-06T12:39:46;8.57;;;8.07;;
33491;SDS011;20010;51.488;7.232;2023-08-06T12:42:12;7.10;;;6.70;;
33491;SDS011;20010;51.488;7.232;2023-08-06T12:44:39;6.47;;;6.07;;
33491;SDS011;20010;51.488;7.232;2023-08-06T12:47:09;7.13;;;6.65;;
33491;SDS011;20010;51.488;7.232;2023-08-06T12:49:35;5.85;;;5.45;;
33491;SDS011;20010;51.488;7.232;2023-08-06T12:52:02;6.90;;;4.88;;
33491;SDS011;20010;51.488;7.232;2023-08-06T12:54:31;4.93;;;4.63;;
33491;SDS011;20010;51.488;7.232;2023-08-06T12:57:03;5.40;;;5.00;;
33491;SDS011;20010;51.488;7.232;2023-08-06T12:59:30;4.70;;;4.38;;
33491;SDS011;20010;51.488;7.232;2023-08-06T13:01:57;4.72;;;4.35;;
33491;SDS011;20010;51.488;7.232;2023-08-06T13:04:24;4.55;;;4.15;;
33491;SDS011;20010;51.488;7.232;2023-08-06T13:06:51;4.70;;;4.40;;
33491;SDS011;20010;51.488;7.232;2023-08-06T13:09:18;4.45;;;4.15;;
33491;SDS011;20010;51.488;7.232;2023-08-06T13:11:45;4.63;;;4.30;;
33491;SDS011;20010;51.488;7.232;2023-08-06T13:14:13;5.25;;;4.85;;
33491;SDS011;20010;51.488;7.232;2023-08-06T13:16:41;6.53;;;4.13;;
33491;SDS011;20010;51.488;7.232;2023-08-06T13:19:08;4.03;;;3.80;;
33491;SDS011;20010;51.488;7.232;2023-08-06T13:21:57;4.18;;;3.95;;
33491;SDS011;20010;51.488;7.232;2023-08-06T13:24:22;4.47;;;4.07;;
33491;SDS011;20010;51.488;7.232;2023-08-06T13:26:48;4.68;;;4.28;;
33491;SDS011;20010;51.488;7.232;2023-08-06T13:29:15;4.85;;;4.65;;
33491;SDS011;20010;51.488;7.232;2023-08-06T13:31:42;4.72;;;4.45;;
33491;SDS011;20010;51.488;7.232;2023-08-06T13:34:08;4.88;;;4.68;;
33491;SDS011;20010;51.488;7.232;2023-08-06T13:36:35;4.93;;;4.47;;
33491;SDS011;20010;51.488;7.232;2023-08-06T13:39:01;4.65;;;4.45;;
33491;SDS011;20010;51.488;7.232;2023-08-06T13:41:29;4.63;;;4.32;;
33491;SDS011;20010;51.488;7.232;2023-08-06T13:43:56;4.85;;;4.50;;
33491;SDS011;20010;51.488;7.232;2023-08-06T13:46:22;6.40;;;4.70;;
33491;SDS011;20010;51.488;7.232;2023-08-06T13:48:49;4.90;;;4.60;;
33491;SDS011;20010;51.488;7.232;2023-08-06T13:51:19;5.13;;;4.72;;
33491;SDS011;20010;51.488;7.232;2023-08-06T13:53:45;5.03;;;4.72;;
33491;SDS011;20010;51.488;7.232;2023-08-06T13:56:12;5.03;;;4.72;;
33491;SDS011;20010;51.488;7.232;2023-08-06T13:58:41;4.63;;;4.32;;
33491;SDS011;20010;51.488;7.232;2023-08-06T14:01:09;5.38;;;5.07;;
33491;SDS011;20010;51.488;7.232;2023-08-06T14:03:37;5.55;;;5.25;;
33491;SDS011;20010;51.488;7.232;2023-08-06T14:06:04;5.55;;;5.13;;
33491;SDS011;20010;51.488;7.232;2023-08-06T14:08:30;5.45;;;5.07;;
33491;SDS011;20010;51.488;7.232;2023-08-06T14:10:57;6.68;;;6.13;;
33491;SDS011;20010;51.488;7.232;2023-08-06T14:13:24;6.00;;;5.60;;
33491;SDS011;20010;51.488;7.232;2023-08-06T14:15:50;6.10;;;5.60;;
33491;SDS011;20010;51.488;7.232;2023-08-06T14:18:17;6.32;;;5.82;;
33491;SDS011;20010;51.488;7.232;2023-08-06T14:20:44;6.43;;;5.93;;
33491;SDS011;20010;51.488;7.232;2023-08-06T14:23:11;6.40;;;5.90;;
33491;SDS011;20010;51.488;7.232;2023-08-06T14:25:38;6.72;;;6.22;;
33491;SDS011;20010;51.488;7.232;2023-08-06T14:28:06;7.35;;;6.72;;
33491;SDS011;20010;51.488;7.232;2023-08-06T14:30:34;8.32;;;7.30;;
33491;SDS011;20010;51.488;7.232;2023-08-06T14:33:04;7.55;;;6.85;;
33491;SDS011;20010;51.488;7.232;2023-08-06T14:35:46;7.68;;;7.07;;
33491;SDS011;20010;51.488;7.232;2023-08-06T14:38:13;8.00;;;7.40;;
33491;SDS011;20010;51.488;7.232;2023-08-06T14:40:40;8.27;;;7.53;;
33491;SDS011;20010;51.488;7.232;2023-08-06T14:43:07;7.60;;;6.90;;
33491;SDS011;20010;51.488;7.232;2023-08-06T14:45:35;7.00;;;6.40;;
33491;SDS011;20010;51.488;7.232;2023-08-06T14:48:04;7.13;;;6.60;;
33491;SDS011;20010;51.488;7.232;2023-08-06T14:50:30;6.78;;;6.30;;
33491;SDS011;20010;51.488;7.232;2023-08-06T14:52:57;6.32;;;5.90;;
33491;SDS011;20010;51.488;7.232;2023-08-06T14:55:30;7.00;;;6.40;;
33491;SDS011;20010;51.488;7.232;2023-08-06T14:57:56;7.18;;;6.68;;
33491;SDS011;20010;51.488;7.232;2023-08-06T15:00:23;7.20;;;6.55;;
33491;SDS011;20010;51.488;7.232;2023-08-06T15:02:50;6.72;;;6.10;;
33491;SDS011;20010;51.488;7.232;2023-08-06T15:05:19;6.47;;;5.95;;
33491;SDS011;20010;51.488;7.232;2023-08-06T15:07:46;7.07;;;6.47;;